LSZL

Details ICAO LSZL (ZJI)
Name Locarno
Region Switzerland
Timezone Europe/Zurich (UTC+2.0)
Plans Departing 39
Arriving 38
Stats Elevation 650 ft / 198 m (AMSL)
Location 46.162618° 8.879874°
Runways 3
Magnetic Variation 2.471° E
Sunrise 2018-05-27 03:41:41 UTC / 2018-05-27 05:41:41 Local
Sunset 2018-05-27 19:04:28 UTC / 2018-05-27 21:04:28 Local
Advertisement - Login to hide

Runways

ID Width Length Bearing (true) Bearing (mag) Surface Threshold Offset Overrun Length
08C 98 ft / 30 m 2,298 ft / 700 m 80.00° 77.53° Grass 0 ft / 0 m 0 ft / 0 m
08L 75 ft / 23 m 2,626 ft / 801 m 80.00° 77.53° Asphalt 0 ft / 0 m 0 ft / 0 m
08R 98 ft / 30 m 2,298 ft / 700 m 80.00° 77.53° Grass 0 ft / 0 m 0 ft / 0 m
26C 98 ft / 30 m 2,298 ft / 700 m 260.00° 257.53° Grass 0 ft / 0 m 0 ft / 0 m
26L 98 ft / 30 m 2,298 ft / 700 m 260.00° 257.53° Grass 0 ft / 0 m 0 ft / 0 m
26R 75 ft / 23 m 2,626 ft / 801 m 260.00° 257.53° Asphalt 0 ft / 0 m 0 ft / 0 m

Map

Weather


0- 5 10 15 20 25 30 35+ Temperature / ° C

Clouds and Precipitation
Forecast for 2018-05-27 12:00 UTC. Updated 4 hours ago

Ground ~20,000 ft ~40,000 ft Winds

METAR

LSZL 271450Z AUTO 24005KT 210V270 9999NDV NCD 27/15 Q1016 RMK

TAF

Not found

Frequencies

Recorded 133.45 MHz ATIS
Tower 134.82 MHz TWR
Ground 121.70 MHz GND
Warning: Do not use this data for real-world aviation or navigation. No guarantee of current accuracy is given.